Limoeiro do Norte, Brazil
Current Conditions -  °F | °C
As of 7:00 AM on Tuesday 27 Jan 2015 (Local Time) from SBFZ Reporting Station
Broken Clouds Broken Clouds  
Wind Chill: 79°   Ceiling: 2300
Heat Index: 82°   Visibility: 6mi
Dew Point: 72°   Wind: 14mph
Humidity: 78%   Direction: 100°E
Pressure: 29.91"   Gusts: NA
Location:  5.15°S, 38.1°W
Report Text: SBFZ 271000Z 10012KT 9999 BKN023 26/22 Q1013
Loading
Personal Weather Stations






























Interactive Weather Map New forecast layout! Learn more

10-Day Weather Forecast

Advertisements
Track Severe Weather on mobile